Latest Coastal Weather Observations for Cape Ferguson

IDQ60701

Issued at 11:42 am EST Wednesday 28 September 2016 (issued every 10 minutes, with the page automatically refreshed every 10 minutes)

About coastal observations | Map of coastal stations | Coastal observations for QLD | Marine services | Other Formats
Station Details ID: 032182 Name: CAPE FERGUSON NTC AWS Lat: -19.28 Lon: 147.06 Height: 0.0 m
Data from the previous 72 hours. | See also: Recent months for locations in Queensland
Date/Time
EST
Temp
°C
Wind Pressure Rain since
9am
mm
Weather Cloud Vis
km
Sea
Height
m
Swell
Dir  Spd
kts
Gust
kts
hPa Trend Height
m
Period
s
Dir
28/11:30am 25.6 E 12 14 1014.0 - - - - - - - - -
28/11:00am 25.5 ESE 11 12 1014.4 - - - - - - - - -
28/10:30am 25.4 E 9 11 1014.6 - - - - - - - - -
28/10:00am 25.3 E 8 10 1014.6 - - - - - - - - -
28/09:30am 25.3 ESE 10 12 1014.6 - - - - - - - - -
28/09:00am 24.8 SE 10 12 1014.5 - - - - - - - - -
28/08:30am 24.5 ESE 10 13 1014.4 - - - - - - - - -
28/08:00am 24.4 SE 11 12 1014.4 - - - - - - - - -
28/07:30am 24.6 SE 8 11 1014.2 - - - - - - - - -
28/07:00am 24.9 ESE 9 11 1013.9 - - - - - - - - -
28/06:30am 24.9 E 8 10 1013.4 - - - - - - - - -
28/06:00am 24.8 E 8 10 1012.8 - - - - - - - - -
28/05:30am 24.8 E 9 11 1012.5 - - - - - - - - -
28/05:00am 24.8 ENE 10 11 1012.3 - - - - - - - - -
28/04:30am 24.9 E 10 12 1011.8 - - - - - - - - -
28/04:00am 25.1 E 10 11 1011.5 - - - - - - - - -
28/03:30am 25.0 E 9 10 1011.7 - - - - - - - - -
28/03:00am 25.0 E 8 9 1011.9 - - - - - - - - -
28/02:30am 25.1 E 8 9 1012.0 - - - - - - - - -
28/02:00am 25.0 E 7 8 1012.1 - - - - - - - - -
28/01:30am 25.1 ENE 7 9 1012.5 - - - - - - - - -
28/01:00am 25.1 ENE 7 10 1012.7 - - - - - - - - -
28/12:30am 25.2 E 7 9 1013.1 - - - - - - - - -
28/12:00am 25.2 E 8 9 1013.5 - - - - - - - - -
 
Date/Time
EST
Temp
°C
Wind Pressure Rain since
9am
mm
Weather Cloud Vis
km
Sea
Height
m
Swell
Dir  Spd
kts
Gust
kts
hPa Trend Height
m
Period
s
Dir
27/11:30pm 25.3 ESE 6 9 1013.8 - - - - - - - - -
27/11:00pm 25.3 ENE 10 11 1013.4 - - - - - - - - -
27/10:30pm 25.4 E 11 13 1013.7 - - - - - - - - -
27/10:00pm 25.9 ESE 10 12 1014.2 - - - - - - - - -
27/09:30pm 25.9 ESE 10 12 1013.9 - - - - - - - - -
27/09:00pm 25.9 E 9 10 1013.7 - - - - - - - - -
27/08:30pm 26.0 E 8 10 1013.5 - - - - - - - - -
27/08:00pm 25.8 N 2 5 1013.0 - - - - - - - - -
27/07:30pm 25.8 N 4 5 1012.3 - - - - - - - - -
27/07:00pm 26.1 NNE 6 8 1011.9 - - - - - - - - -
27/06:30pm 26.2 NNE 6 9 1011.3 - - - - - - - - -
27/06:00pm 26.3 N 7 13 1010.6 - - - - - - - - -
27/05:30pm 26.7 NNE 5 11 1010.4 - - - - - - - - -
27/05:00pm 26.8 NE 7 14 1010.0 - - - - - - - - -
27/04:30pm 26.8 NE 8 16 1009.6 - - - - - - - - -
27/04:00pm 27.1 NE 7 16 1009.6 - - - - - - - - -
27/03:30pm 27.2 NE 8 15 1009.7 - - - - - - - - -
27/03:00pm 27.1 NE 9 14 1009.9 - - - - - - - - -
27/02:30pm 27.4 NNE 10 14 1010.2 - - - - - - - - -
27/02:00pm 27.6 NNE 9 13 1010.7 - - - - - - - - -
27/01:30pm 27.8 NNE 7 11 1011.1 - - - - - - - - -
27/01:00pm 27.0 NNE 8 11 1011.5 - - - - - - - - -
27/12:30pm 26.8 NNE 6 10 1012.3 - - - - - - - - -
27/12:00pm 26.4 NE 4 9 1013.0 - - - - - - - - -
27/11:30am 25.9 ENE 6 8 1013.5 - - - - - - - - -
27/11:00am 25.7 ENE 6 9 1013.8 - - - - - - - - -
27/10:30am 25.0 ENE 6 7 1014.3 - - - - - - - - -
27/10:00am 24.8 ESE 6 7 1014.8 - - - - - - - - -
27/09:30am 24.7 ESE 6 8 1014.9 - - - - - - - - -
27/09:00am 24.5 SE 5 6 1015.1 - - - - - - - - -
27/08:30am 24.3 SE 5 7 1015.3 - - - - - - - - -
27/08:00am 24.1 SE 6 7 1015.1 - - - - - - - - -
27/07:30am 24.0 SSE 6 8 1015.0 - - - - - - - - -
27/07:00am 24.1 S 6 8 1014.7 - - - - - - - - -
27/06:30am 24.0 S 8 10 1014.1 - - - - - - - - -
27/06:00am 23.9 SSE 9 12 1013.8 - - - - - - - - -
27/05:30am 24.0 SSE 11 12 1013.6 - - - - - - - - -
27/05:00am 24.1 S 8 11 1013.1 - - - - - - - - -
27/04:30am 25.0 ESE 4 5 1012.6 - - - - - - - - -
27/04:00am 24.9 ENE 4 6 1012.2 - - - - - - - - -
27/03:30am 24.9 E 5 6 1012.2 - - - - - - - - -
27/03:00am 25.0 E 4 5 1012.3 - - - - - - - - -
27/02:30am 25.0 E 6 8 1012.4 - - - - - - - - -
27/02:00am 25.1 E 7 8 1012.8 - - - - - - - - -
27/01:30am 25.1 ESE 8 10 1013.2 - - - - - - - - -
27/01:00am 25.1 E 8 11 1013.4 - - - - - - - - -
27/12:30am 25.1 E 10 11 1013.6 - - - - - - - - -
27/12:00am 25.1 E 9 11 1013.9 - - - - - - - - -
 
Date/Time
EST
Temp
°C
Wind Pressure Rain since
9am
mm
Weather Cloud Vis
km
Sea
Height
m
Swell
Dir  Spd
kts
Gust
kts
hPa Trend Height
m
Period
s
Dir
26/11:30pm 25.2 E 10 11 1014.1 - - - - - - - - -
26/11:00pm 25.4 E 7 10 1014.1 - - - - - - - - -
26/10:30pm 25.5 E 8 9 1014.1 - - - - - - - - -
26/10:00pm 25.7 E 9 10 1014.0 - - - - - - - - -
26/09:30pm 25.6 E 8 10 1013.9 - - - - - - - - -
26/09:00pm 25.8 ENE 10 12 1013.2 - - - - - - - - -
26/08:30pm 26.0 E 9 10 1013.3 - - - - - - - - -
26/08:00pm 26.1 E 7 8 1012.7 - - - - - - - - -
26/07:30pm 26.1 E 7 9 1012.2 - - - - - - - - -
26/07:00pm 26.5 ENE 6 7 1011.7 - - - - - - - - -
26/06:30pm 26.9 NE 2 5 1011.0 - - - - - - - - -
26/06:00pm 27.0 NNE 4 7 1010.4 - - - - - - - - -
26/05:30pm 27.4 N 3 7 1010.0 - - - - - - - - -
26/05:00pm 27.4 NNW 2 7 1009.5 - - - - - - - - -
26/04:30pm 27.1 ENE 5 16 1009.1 - - - - - - - - -
26/04:00pm 27.5 NE 7 17 1008.8 - - - - - - - - -
26/03:30pm 27.5 NE 5 13 1008.9 - - - - - - - - -
26/03:00pm 27.5 NE 7 18 1009.0 - - - - - - - - -
26/02:30pm 27.5 NNE 10 15 1009.2 - - - - - - - - -
26/02:00pm 27.3 NNE 11 15 1009.5 - - - - - - - - -
26/01:30pm 27.4 NNE 8 13 1010.0 - - - - - - - - -
26/01:00pm 27.3 NNE 9 13 1010.4 - - - - - - - - -
26/12:30pm 27.5 NNE 8 11 1010.9 - - - - - - - - -
26/12:00pm 26.8 NNE 7 11 1011.5 - - - - - - - - -
26/11:30am 26.3 NNE 7 10 1012.1 - - - - - - - - -
26/11:00am 26.4 NNE 7 10 1012.5 - - - - - - - - -
26/10:30am 26.6 NE 4 7 1012.9 - - - - - - - - -
26/10:00am 25.8 ENE 5 6 1013.2 - - - - - - - - -
26/09:30am 25.0 E 5 5 1013.3 - - - - - - - - -
26/09:00am 24.8 E 4 5 1013.5 - - - - - - - - -
26/08:30am 25.1 ESE 1 3 1013.5 - - - - - - - - -
26/08:00am 24.0 SSW 1 2 1013.3 - - - - - - - - -
26/07:30am 23.9 SSW 2 3 1013.0 - - - - - - - - -
26/07:00am 24.0 CALM 0 2 1012.8 - - - - - - - - -
26/06:30am 23.0 NW 3 5 1012.5 - - - - - - - - -
26/06:00am 23.0 W 3 5 1012.2 - - - - - - - - -
26/05:30am 23.5 SSW 3 4 1011.8 - - - - - - - - -
26/05:00am 23.6 SW 1 3 1011.4 - - - - - - - - -
26/04:30am 23.8 NW 3 5 1011.1 - - - - - - - - -
26/04:00am 23.9 WSW 2 3 1011.0 - - - - - - - - -
26/03:30am 23.9 WNW 2 4 1010.8 - - - - - - - - -
26/03:00am 24.5 NNW 2 3 1010.8 - - - - - - - - -
26/02:30am 24.8 CALM 0 1 1011.0 - - - - - - - - -
26/02:00am 24.7 NNW 1 3 1011.1 - - - - - - - - -
26/01:30am 25.1 SW 3 4 1011.4 - - - - - - - - -
26/01:00am 25.3 WNW 2 3 1011.7 - - - - - - - - -
26/12:30am 25.7 NNW 2 5 1011.7 - - - - - - - - -
26/12:00am 25.8 NNE 1 2 1011.9 - - - - - - - - -
 
Date/Time
EST
Temp
°C
Wind Pressure Rain since
9am
mm
Weather Cloud Vis
km
Sea
Height
m
Swell
Dir  Spd
kts
Gust
kts
hPa Trend Height
m
Period
s
Dir
25/11:30pm 25.6 N 2 3 1012.1 - - - - - - - - -
25/11:00pm 25.8 NE 2 4 1012.0 - - - - - - - - -
25/10:30pm 25.6 N 3 5 1012.0 - - - - - - - - -
25/10:00pm 25.7 N 2 5 1011.9 - - - - - - - - -
25/09:30pm 25.7 NNW 4 9 1011.8 - - - - - - - - -
25/09:00pm 25.7 N 4 7 1011.7 - - - - - - - - -
25/08:30pm 25.8 N 4 7 1011.4 - - - - - - - - -
25/08:00pm 25.7 NNW 4 9 1010.9 - - - - - - - - -
25/07:30pm 25.7 NNW 6 11 1010.5 - - - - - - - - -
25/07:00pm 25.7 NNW 4 8 1010.2 - - - - - - - - -
25/06:30pm 25.8 NNW 5 10 1009.8 - - - - - - - - -
25/06:00pm 25.9 NNW 5 10 1009.4 - - - - - - - - -
25/05:30pm 26.2 NW 3 9 1009.0 - - - - - - - - -
25/05:00pm 26.4 WNW 5 12 1008.5 - - - - - - - - -
25/04:30pm 26.5 NNW 4 13 1008.4 - - - - - - - - -
25/04:00pm 26.5 WNW 4 12 1008.3 - - - - - - - - -
25/03:30pm 26.8 WNW 4 12 1008.4 - - - - - - - - -
25/03:00pm 26.6 SSW 3 8 1008.4 - - - - - - - - -
25/02:30pm 27.0 ENE 5 11 1008.5 - - - - - - - - -
25/02:00pm 26.7 N 4 18 1008.9 - - - - - - - - -
25/01:30pm 27.1 SSE 3 8 1009.2 - - - - - - - - -
25/01:00pm 26.8 ESE 3 9 1009.4 - - - - - - - - -
25/12:30pm 27.1 E 4 13 1010.0 - - - - - - - - -
25/12:00pm 26.9 E 5 13 1010.6 - - - - - - - - -

Other Formats:

Comma delimited format used in spreadsheet applications
http://www.bom.gov.au/fwo/IDQ60701/IDQ60701.94297.axf

JavaScript Object Notation format (JSON) in row-major order
http://www.bom.gov.au/fwo/IDQ60701/IDQ60701.94297.json